Main page
METAR-TAF:

METAR-TAF

Airports :

Hays Regional Airport

Hays, Kansas, United States

latitude: 38-51N, longitude: 099-16W, elevation: 1998 ft

Current weather observation

The report was made 21 minutes ago, at 15:56 UTC
Wind 16 mph from the South
Temperature 81°F
Humidity 70%
Pressure 30.25 in. Hg
Visibility: 10 miles
Few clouds at a height of 2700 ft

METAR: KHYS 201556Z AUTO 18014KT 10SM FEW027 27/21 A3025 RMK AO2 SLP228 T02720206

Time: 11:17 (16:17 UTC)

Forecast

The report was made 2 hours and 3 minutes ago, at 14:14 UTC
Forecast valid from 20 at 14 UTC to 21 at 12 UTC
Wind 12 mph from the South
Visibility: 6 miles
Scattered clouds at a height of 1200 ft
From 20 at 1600 UTC
Wind 23 mph from the South with gusts up to 35 mph
Visibility: 6 miles
Scattered clouds at a height of 8000 ft
From 21 at 0100 UTC
Wind 13 mph from the South
Visibility: 6 miles
Scattered clouds at a height of 23000 ft

TAF: KHYS 201414Z 2014/2112 17010KT P6SM SCT012 FM201600 18020G30KT P6SM SCT080 FM210100 17011KT P6SM SCT230

Weather observations and forecasts of more than 4000 airports (METAR and TAF reports).

The available stations are represented by yellow and red dots on the map.

Hover mouse over dot to see the name of the station.

Then click to see weather observations and forecasts.

To change the map : click on the green buttons with a black cross to zoom in, on the green button with a dash to zoom out, or on the green arrows for adjacent maps.


METAR-TAF: